createdAt,value
2023-03-02T00:00:52.619Z,69.63
2023-03-02T00:03:19.199Z,69.24
2023-03-02T00:05:47.303Z,69.82
2023-03-02T00:08:18.152Z,70.50
2023-03-02T00:10:45.080Z,70.02
2023-03-02T00:13:13.390Z,70.52
2023-03-02T00:15:40.076Z,69.95
2023-03-02T00:18:06.664Z,70.52
2023-03-02T00:20:34.853Z,69.94
2023-03-02T00:23:01.589Z,70.40
2023-03-02T00:25:28.890Z,70.49
2023-03-02T00:27:55.491Z,70.71
2023-03-02T00:30:22.146Z,70.98
2023-03-02T00:32:48.748Z,70.76
2023-03-02T00:35:15.573Z,70.79
2023-03-02T00:37:42.212Z,71.14
2023-03-02T00:40:09.797Z,71.14
2023-03-02T00:42:37.683Z,71.60
2023-03-02T00:47:44.107Z,71.31
2023-03-02T00:50:10.981Z,71.49
2023-03-02T00:52:37.646Z,71.81
2023-03-02T00:55:04.531Z,71.22
2023-03-02T00:57:31.178Z,71.67
2023-03-02T00:59:58.065Z,70.94
2023-03-02T01:02:24.672Z,71.77
2023-03-02T01:04:53.264Z,71.90
2023-03-02T01:07:26.316Z,72.53
2023-03-02T01:09:52.960Z,72.58
2023-03-02T01:12:19.955Z,73.06
2023-03-02T01:14:49.024Z,73.18
2023-03-02T01:17:15.773Z,73.50
2023-03-02T01:19:42.587Z,73.48
2023-03-02T01:22:09.869Z,73.39
2023-03-02T01:24:36.471Z,74.26
2023-03-02T01:27:03.091Z,73.80
2023-03-02T01:29:29.658Z,74.34
2023-03-02T01:31:56.339Z,74.97
2023-03-02T01:34:23.134Z,74.83
2023-03-02T01:36:49.715Z,74.65
2023-03-02T01:39:16.385Z,75.36
2023-03-02T01:41:46.609Z,75.43
2023-03-02T01:44:37.491Z,75.52
2023-03-02T01:47:26.933Z,75.65
2023-03-02T01:52:40.351Z,76.09
2023-03-02T01:55:11.273Z,76.34
2023-03-02T01:57:43.926Z,75.79
2023-03-02T02:00:19.518Z,75.78
2023-03-02T02:02:46.786Z,75.87
2023-03-02T02:05:19.342Z,75.56
2023-03-02T02:07:46.154Z,74.62
2023-03-02T02:10:13.413Z,75.85
2023-03-02T02:12:39.994Z,76.13
2023-03-02T02:15:07.171Z,76.33
2023-03-02T02:17:34.297Z,76.78
2023-03-02T02:20:25.369Z,77.38
2023-03-02T02:22:58.067Z,77.27
2023-03-02T02:25:30.391Z,76.56
2023-03-02T02:27:57.369Z,77.15
2023-03-02T02:33:05.638Z,76.83
2023-03-02T02:35:34.918Z,77.33
2023-03-02T02:38:07.804Z,77.65
2023-03-02T02:40:50.434Z,77.47
2023-03-02T02:43:19.685Z,77.45
2023-03-02T02:45:48.879Z,77.83
2023-03-02T02:48:18.253Z,77.96
2023-03-02T02:50:46.461Z,78.63
2023-03-02T02:53:26.044Z,77.58
2023-03-02T02:55:57.147Z,77.52
2023-03-02T02:58:41.826Z,77.84
2023-03-02T03:01:08.784Z,77.79
2023-03-02T03:03:39.277Z,78.05
2023-03-02T03:06:13.068Z,78.36
2023-03-02T03:08:45.769Z,78.75
2023-03-02T03:11:24.096Z,78.39
2023-03-02T03:14:10.306Z,77.98
2023-03-02T03:16:39.160Z,77.52
2023-03-02T03:19:12.133Z,77.69
2023-03-02T03:21:38.682Z,77.49
2023-03-02T03:24:05.672Z,77.96
2023-03-02T03:26:32.493Z,76.53
2023-03-02T03:28:59.443Z,77.84
2023-03-02T03:31:27.950Z,77.61
2023-03-02T03:33:56.144Z,77.02
2023-03-02T03:36:22.964Z,77.78
2023-03-02T03:38:49.619Z,77.45
2023-03-02T03:41:16.312Z,78.05
2023-03-02T03:43:42.990Z,77.93
2023-03-02T03:46:09.592Z,77.78
2023-03-02T03:48:36.262Z,78.02
2023-03-02T03:51:02.917Z,78.04
2023-03-02T03:53:29.617Z,78.59
2023-03-02T03:58:35.514Z,78.47
2023-03-02T04:01:02.066Z,78.66
2023-03-02T04:03:28.979Z,78.55
2023-03-02T04:05:55.753Z,78.19
2023-03-02T04:08:22.518Z,78.14
2023-03-02T04:10:49.074Z,79.42
2023-03-02T04:13:15.992Z,79.30
2023-03-02T04:15:44.406Z,79.77
2023-03-02T04:18:12.510Z,79.59
2023-03-02T04:20:39.115Z,80.26
2023-03-02T04:23:05.717Z,78.61
2023-03-02T04:25:32.284Z,78.98
2023-03-02T04:27:59.305Z,79.53
2023-03-02T04:32:58.158Z,79.53
2023-03-02T04:35:25.584Z,79.57
2023-03-02T04:37:52.624Z,79.36
2023-03-02T04:40:19.333Z,79.80
2023-03-02T04:42:46.103Z,78.77
2023-03-02T04:45:13.528Z,78.95
2023-03-02T04:47:40.615Z,78.13
2023-03-02T04:50:08.755Z,79.24
2023-03-02T04:52:35.378Z,78.91
2023-03-02T04:55:02.159Z,78.54
2023-03-02T04:57:28.705Z,78.41
2023-03-02T04:59:55.468Z,79.29
2023-03-02T05:02:22.138Z,78.70
2023-03-02T05:04:49.047Z,77.42
2023-03-02T05:07:15.662Z,78.20
2023-03-02T05:09:42.447Z,78.03
2023-03-02T05:12:08.983Z,79.28
2023-03-02T05:14:35.634Z,79.45
2023-03-02T05:17:02.291Z,79.95
2023-03-02T05:19:28.990Z,80.64
2023-03-02T05:21:56.617Z,80.73
2023-03-02T05:24:23.139Z,80.62
2023-03-02T05:26:49.820Z,80.79
2023-03-02T05:31:48.307Z,80.95
2023-03-02T05:34:16.952Z,81.41
2023-03-02T05:36:45.332Z,80.43
2023-03-02T05:39:12.605Z,80.64
2023-03-02T05:41:39.761Z,80.42
2023-03-02T05:44:09.605Z,80.51
2023-03-02T05:46:36.826Z,80.73
2023-03-02T05:49:03.629Z,81.09
2023-03-02T05:51:30.228Z,81.55
2023-03-02T05:53:56.881Z,81.32
2023-03-02T05:56:23.528Z,81.88
2023-03-02T05:58:50.052Z,81.75
2023-03-02T06:01:16.643Z,82.01
2023-03-02T06:03:43.543Z,81.52
2023-03-02T06:06:14.182Z,81.55
2023-03-02T06:08:42.215Z,81.56
2023-03-02T06:11:09.269Z,81.76
2023-03-02T06:13:36.293Z,81.83
2023-03-02T06:16:03.472Z,82.08
2023-03-02T06:18:30.166Z,81.71
2023-03-02T06:20:56.871Z,80.98
2023-03-02T06:23:23.550Z,81.32
2023-03-02T06:25:50.178Z,81.72
2023-03-02T06:28:19.908Z,81.37
2023-03-02T06:30:48.813Z,81.81
2023-03-02T06:33:21.198Z,81.39
2023-03-02T06:35:48.239Z,81.08
2023-03-02T06:38:15.240Z,81.51
2023-03-02T06:43:19.310Z,81.11
2023-03-02T06:48:19.197Z,80.61
2023-03-02T06:50:45.798Z,80.74
2023-03-02T06:53:12.331Z,80.10
2023-03-02T06:55:38.974Z,80.22
2023-03-02T06:58:05.546Z,80.27
2023-03-02T07:03:11.025Z,81.57
2023-03-02T07:05:37.777Z,81.21
2023-03-02T07:08:04.763Z,80.78
2023-03-02T07:10:31.385Z,81.25
2023-03-02T07:12:57.977Z,82.20
2023-03-02T07:15:24.849Z,80.57
2023-03-02T07:17:51.491Z,80.11
2023-03-02T07:20:18.576Z,79.61
2023-03-02T07:22:45.998Z,78.86
2023-03-02T07:25:12.813Z,78.54
2023-03-02T07:27:40.034Z,78.65
2023-03-02T07:30:07.350Z,79.48
2023-03-02T07:32:33.988Z,79.26
2023-03-02T07:37:31.841Z,78.00
2023-03-02T07:40:00.564Z,77.58
2023-03-02T07:42:27.270Z,76.74
2023-03-02T07:44:54.641Z,77.09
2023-03-02T07:47:21.934Z,77.21
2023-03-02T07:49:48.456Z,76.94
2023-03-02T07:52:15.247Z,76.58
2023-03-02T07:54:41.896Z,76.37
2023-03-02T07:57:08.569Z,76.29
2023-03-02T07:59:35.163Z,74.82
2023-03-02T08:02:01.756Z,74.07
2023-03-02T08:12:12.801Z,73.11
2023-03-02T08:14:39.418Z,72.50
2023-03-02T08:17:08.306Z,73.13
2023-03-02T08:19:34.917Z,72.48
2023-03-02T08:22:02.313Z,70.69
2023-03-02T08:24:28.903Z,70.26
2023-03-02T08:26:56.028Z,70.83
2023-03-02T08:29:24.630Z,69.88
2023-03-02T08:31:51.289Z,69.67
2023-03-02T08:36:50.293Z,68.81
2023-03-02T08:39:16.907Z,68.79
2023-03-02T08:41:43.452Z,67.92
2023-03-02T08:44:10.505Z,67.63
2023-03-02T08:46:37.042Z,67.39
2023-03-02T08:49:03.615Z,66.41
2023-03-02T08:51:30.246Z,65.83
2023-03-02T08:56:31.145Z,64.54
2023-03-02T08:59:03.890Z,65.45
2023-03-02T09:04:11.486Z,64.06
2023-03-02T09:06:41.502Z,64.55
2023-03-02T09:09:09.703Z,63.68
2023-03-02T09:11:36.725Z,63.32
2023-03-02T09:14:03.831Z,62.96
2023-03-02T09:16:30.471Z,61.56
2023-03-02T09:18:57.086Z,60.98
2023-03-02T09:21:25.410Z,60.64
2023-03-02T09:23:58.217Z,61.19
2023-03-02T09:26:26.653Z,59.76
2023-03-02T09:28:53.350Z,59.04
2023-03-02T09:31:20.041Z,58.78
2023-03-02T09:33:46.697Z,59.16
2023-03-02T09:36:22.602Z,59.54
2023-03-02T09:38:49.232Z,57.16
2023-03-02T09:41:39.348Z,57.41
2023-03-02T09:44:22.994Z,56.07
2023-03-02T09:49:48.153Z,56.46
2023-03-02T09:52:40.492Z,56.80
2023-03-02T09:55:19.738Z,55.41
2023-03-02T09:57:47.234Z,56.46
2023-03-02T10:00:20.380Z,54.53
2023-03-02T10:02:54.170Z,54.91
2023-03-02T10:05:24.605Z,53.93
2023-03-02T10:07:51.716Z,53.55
2023-03-02T10:10:18.262Z,53.82
2023-03-02T10:13:15.706Z,53.30
2023-03-02T10:15:47.966Z,51.74
2023-03-02T10:18:29.645Z,52.26
2023-03-02T10:21:33.930Z,51.91
2023-03-02T10:24:34.224Z,51.13
2023-03-02T10:27:19.165Z,52.12
2023-03-02T10:29:55.003Z,52.54
2023-03-02T10:32:24.777Z,52.61
2023-03-02T10:34:53.340Z,51.57
2023-03-02T10:37:25.440Z,51.15
2023-03-02T10:39:52.911Z,50.62
2023-03-02T10:42:24.511Z,49.71
2023-03-02T10:45:00.428Z,50.10
2023-03-02T10:47:29.315Z,50.10
2023-03-02T10:49:57.717Z,50.20
2023-03-02T10:52:27.269Z,50.26
2023-03-02T10:55:13.911Z,49.71
2023-03-02T10:57:45.031Z,48.37
2023-03-02T11:00:17.819Z,48.54
2023-03-02T11:02:54.394Z,48.77
2023-03-02T11:05:28.068Z,47.44
2023-03-02T11:07:56.009Z,47.94
2023-03-02T11:10:25.903Z,49.65
2023-03-02T11:12:54.126Z,48.10
2023-03-02T11:15:32.466Z,48.56
2023-03-02T11:18:09.943Z,48.05
2023-03-02T11:20:42.208Z,48.60
2023-03-02T11:26:26.955Z,48.10
2023-03-02T11:29:11.563Z,48.31
2023-03-02T11:31:47.667Z,47.11
2023-03-02T11:34:20.443Z,46.51
2023-03-02T11:40:11.970Z,46.10
2023-03-02T11:42:41.236Z,46.54
2023-03-02T11:45:13.548Z,47.22
2023-03-02T11:48:00.993Z,46.84
2023-03-02T11:50:31.115Z,45.74
2023-03-02T11:53:00.234Z,46.87
2023-03-02T11:55:31.661Z,46.15
2023-03-02T12:00:49.714Z,47.13
2023-03-02T12:03:16.165Z,47.10
2023-03-02T12:06:07.784Z,46.87
2023-03-02T12:08:50.038Z,45.34
2023-03-02T12:11:16.534Z,46.44
2023-03-02T12:13:45.604Z,46.53
2023-03-02T12:16:33.987Z,45.56
2023-03-02T12:19:18.066Z,44.91
2023-03-02T12:21:57.801Z,45.71
2023-03-02T12:24:27.632Z,45.38
2023-03-02T12:27:25.684Z,45.74
2023-03-02T12:30:15.796Z,45.58
2023-03-02T12:32:58.352Z,45.08
2023-03-02T12:35:25.784Z,45.34
2023-03-02T12:40:39.759Z,44.61
2023-03-02T12:43:16.795Z,45.90
2023-03-02T12:46:04.475Z,45.48
2023-03-02T12:48:54.760Z,46.20
2023-03-02T12:54:07.577Z,45.06
2023-03-02T12:56:34.754Z,45.02
2023-03-02T12:59:01.489Z,44.98
2023-03-02T13:01:30.790Z,44.65
2023-03-02T13:06:38.602Z,44.23
2023-03-02T13:09:05.288Z,44.83
2023-03-02T13:11:36.931Z,44.72
2023-03-02T13:14:20.454Z,45.19
2023-03-02T13:17:04.431Z,45.31
2023-03-02T13:19:32.325Z,45.55
2023-03-02T13:24:56.121Z,46.10
2023-03-02T13:27:24.318Z,45.86
2023-03-02T13:29:55.791Z,46.39
2023-03-02T13:32:26.584Z,46.41
2023-03-02T13:34:57.484Z,46.49
2023-03-02T13:37:43.694Z,46.22
2023-03-02T13:40:22.601Z,46.30
2023-03-02T13:42:49.307Z,46.89
2023-03-02T13:45:22.245Z,46.55
2023-03-02T13:47:49.103Z,47.18
2023-03-02T13:50:27.436Z,46.77
2023-03-02T13:53:00.635Z,47.40
2023-03-02T13:55:27.695Z,47.09
2023-03-02T13:57:55.822Z,47.58
2023-03-02T14:00:27.463Z,47.75
2023-03-02T14:02:53.970Z,47.46
2023-03-02T14:05:24.067Z,48.52
2023-03-02T14:10:22.190Z,48.37
2023-03-02T14:12:56.303Z,48.26
2023-03-02T14:15:23.319Z,48.78
2023-03-02T14:17:49.957Z,48.70
2023-03-02T14:20:19.635Z,47.51
2023-03-02T14:22:47.379Z,49.29
2023-03-02T14:25:14.844Z,49.23
2023-03-02T14:27:42.462Z,49.14
2023-03-02T14:30:19.114Z,49.23
2023-03-02T14:32:46.012Z,48.99
2023-03-02T14:37:48.346Z,49.59
2023-03-02T14:42:56.904Z,49.16
2023-03-02T14:45:24.118Z,49.16
2023-03-02T14:47:50.657Z,48.82
2023-03-02T14:50:17.435Z,48.15
2023-03-02T14:52:55.015Z,50.41
2023-03-02T14:55:29.607Z,48.98
2023-03-02T14:58:04.070Z,49.82
2023-03-02T15:00:30.817Z,49.12
2023-03-02T15:02:59.206Z,49.79
2023-03-02T15:05:25.846Z,49.80
2023-03-02T15:07:53.757Z,50.03
2023-03-02T15:10:22.277Z,50.14
2023-03-02T15:12:48.898Z,50.63
2023-03-02T15:15:15.592Z,51.00
2023-03-02T15:17:42.369Z,51.34
2023-03-02T15:20:14.294Z,50.91
2023-03-02T15:22:40.811Z,50.20
2023-03-02T15:25:08.235Z,51.30
2023-03-02T15:27:34.871Z,52.32
2023-03-02T15:30:01.417Z,51.49
2023-03-02T15:32:28.051Z,51.86
2023-03-02T15:34:54.591Z,51.51
2023-03-02T15:37:21.194Z,52.23
2023-03-02T15:39:53.313Z,52.45
2023-03-02T15:42:19.863Z,50.63
2023-03-02T15:44:46.397Z,51.53
2023-03-02T15:47:13.029Z,52.18
2023-03-02T15:49:39.871Z,53.10
2023-03-02T15:52:06.484Z,52.14
2023-03-02T15:54:33.656Z,52.77
2023-03-02T15:57:00.250Z,52.51
2023-03-02T15:59:29.878Z,53.09
2023-03-02T16:01:59.947Z,53.67
2023-03-02T16:04:27.276Z,53.41
2023-03-02T16:06:55.004Z,53.75
2023-03-02T16:09:22.637Z,53.67
2023-03-02T16:11:49.923Z,54.98
2023-03-02T16:16:48.307Z,54.30
2023-03-02T16:21:51.074Z,54.78
2023-03-02T16:24:17.690Z,55.26
2023-03-02T16:26:45.066Z,54.77
2023-03-02T16:29:13.144Z,55.48
2023-03-02T16:34:14.575Z,56.93
2023-03-02T16:36:42.261Z,56.65
2023-03-02T16:41:43.513Z,58.15
2023-03-02T16:44:11.739Z,57.01
2023-03-02T16:46:40.094Z,57.95
2023-03-02T16:49:07.004Z,58.22
2023-03-02T16:51:33.568Z,58.67
2023-03-02T16:54:00.102Z,57.85
2023-03-02T16:56:26.750Z,59.34
2023-03-02T17:01:24.884Z,59.55
2023-03-02T17:03:52.128Z,59.09
2023-03-02T17:11:32.013Z,59.32
2023-03-02T17:13:58.796Z,59.57
2023-03-02T17:16:25.485Z,60.07
2023-03-02T17:18:52.135Z,60.04
2023-03-02T17:21:18.872Z,59.76
2023-03-02T17:23:48.156Z,59.52
2023-03-02T17:28:54.498Z,59.79
2023-03-02T17:31:21.334Z,60.23
2023-03-02T17:33:48.014Z,60.24
2023-03-02T17:36:15.924Z,60.54
2023-03-02T17:38:42.631Z,60.26
2023-03-02T17:41:11.055Z,60.36
2023-03-02T17:43:39.697Z,60.74
2023-03-02T17:46:11.097Z,60.64
2023-03-02T17:48:37.764Z,60.98
2023-03-02T17:51:04.486Z,61.30
2023-03-02T17:53:31.099Z,60.50
2023-03-02T17:55:57.644Z,61.07
2023-03-02T18:00:56.785Z,61.79
2023-03-02T18:05:55.744Z,61.89
2023-03-02T18:08:22.817Z,61.72
2023-03-02T18:10:50.240Z,61.79
2023-03-02T18:13:17.454Z,61.87
2023-03-02T18:15:44.440Z,61.33
2023-03-02T18:18:12.728Z,61.71
2023-03-02T18:20:39.293Z,62.46
2023-03-02T18:23:05.822Z,61.11
2023-03-02T18:28:09.520Z,61.93
2023-03-02T18:30:36.130Z,61.66
2023-03-02T18:33:02.718Z,62.59
2023-03-02T18:35:29.402Z,62.35
2023-03-02T18:37:55.992Z,63.23
2023-03-02T18:40:22.539Z,62.95
2023-03-02T18:42:49.197Z,63.31
2023-03-02T18:45:28.060Z,63.81
2023-03-02T18:47:55.324Z,63.74
2023-03-02T18:50:22.685Z,63.98
2023-03-02T18:52:53.049Z,63.68
2023-03-02T18:55:24.512Z,62.94
2023-03-02T18:57:53.952Z,63.06
2023-03-02T19:00:27.363Z,62.84
2023-03-02T19:02:54.792Z,62.96
2023-03-02T19:05:21.456Z,63.42
2023-03-02T19:07:48.086Z,63.05
2023-03-02T19:10:15.816Z,63.39
2023-03-02T19:12:42.390Z,64.09
2023-03-02T19:15:13.163Z,63.74
2023-03-02T19:17:42.681Z,63.58
2023-03-02T19:20:15.194Z,63.93
2023-03-02T19:22:41.740Z,64.06
2023-03-02T19:25:08.835Z,64.24
2023-03-02T19:30:12.122Z,64.33
2023-03-02T19:32:38.792Z,64.62
2023-03-02T19:35:05.940Z,64.46
2023-03-02T19:37:33.513Z,64.99
2023-03-02T19:40:00.060Z,64.44
2023-03-02T19:42:26.768Z,65.25
2023-03-02T19:44:53.305Z,65.73
2023-03-02T19:47:19.873Z,66.04
2023-03-02T19:49:46.377Z,65.69
2023-03-02T19:52:12.881Z,66.30
2023-03-02T19:54:39.411Z,65.82
2023-03-02T19:57:07.867Z,65.84
2023-03-02T19:59:36.632Z,66.48
2023-03-02T20:02:03.348Z,66.64
2023-03-02T20:04:29.911Z,66.93
2023-03-02T20:06:56.871Z,66.78
2023-03-02T20:09:24.327Z,67.20
2023-03-02T20:11:51.098Z,67.03
2023-03-02T20:14:32.889Z,67.34
2023-03-02T20:17:00.266Z,67.20
2023-03-02T20:19:26.862Z,68.09
2023-03-02T20:21:53.406Z,69.36
2023-03-02T20:24:20.165Z,69.49
2023-03-02T20:26:47.001Z,70.39
2023-03-02T20:29:14.204Z,70.79
2023-03-02T20:31:41.032Z,70.95
2023-03-02T20:34:12.458Z,71.43
2023-03-02T20:36:39.117Z,71.94
2023-03-02T20:39:31.500Z,71.89
2023-03-02T20:41:59.005Z,71.86
2023-03-02T20:44:26.309Z,70.66
2023-03-02T20:46:56.096Z,69.70
2023-03-02T20:52:03.247Z,70.79
2023-03-02T20:54:34.036Z,70.43
2023-03-02T20:57:00.645Z,71.95
2023-03-02T20:59:27.946Z,72.21
2023-03-02T21:04:33.295Z,72.03
2023-03-02T21:07:00.129Z,72.79
2023-03-02T21:09:26.683Z,71.92
2023-03-02T21:14:32.566Z,71.68
2023-03-02T21:17:00.339Z,71.14
2023-03-02T21:19:29.616Z,71.17
2023-03-02T21:21:57.213Z,72.46
2023-03-02T21:24:23.833Z,71.99
2023-03-02T21:26:52.346Z,71.77
2023-03-02T21:29:21.885Z,72.62
2023-03-02T21:31:48.639Z,73.38
2023-03-02T21:34:16.475Z,73.89
2023-03-02T21:36:43.585Z,72.69
2023-03-02T21:39:11.909Z,73.49
2023-03-02T21:44:16.812Z,72.82
2023-03-02T21:46:43.558Z,74.29
2023-03-02T21:49:11.460Z,75.42
2023-03-02T21:51:38.021Z,76.19
2023-03-02T21:54:04.785Z,76.83
2023-03-02T21:56:31.300Z,76.49
2023-03-02T21:58:58.013Z,76.92
2023-03-02T22:01:26.516Z,77.12
2023-03-02T22:03:53.511Z,76.74
2023-03-02T22:06:25.705Z,76.80
2023-03-02T22:08:52.990Z,76.68
2023-03-02T22:11:28.492Z,77.79
2023-03-02T22:13:58.508Z,77.88
2023-03-02T22:16:28.241Z,78.05
2023-03-02T22:18:59.778Z,78.23
2023-03-02T22:21:38.248Z,78.13
2023-03-02T22:24:13.840Z,77.40
2023-03-02T22:26:43.890Z,77.52
2023-03-02T22:29:39.513Z,78.61
2023-03-02T22:32:17.158Z,78.90
2023-03-02T22:34:45.437Z,78.46
2023-03-02T22:37:14.900Z,77.76
2023-03-02T22:39:42.392Z,78.36
2023-03-02T22:42:18.545Z,78.01
2023-03-02T22:45:10.165Z,78.57
2023-03-02T22:47:36.680Z,78.67
2023-03-02T22:50:18.824Z,79.64
2023-03-02T22:52:45.416Z,80.26
2023-03-02T22:55:35.380Z,80.36
2023-03-02T22:58:45.174Z,80.18
2023-03-02T23:01:25.064Z,79.40
2023-03-02T23:04:02.271Z,79.17
2023-03-02T23:09:06.364Z,79.85
2023-03-02T23:11:38.434Z,79.96
2023-03-02T23:14:27.405Z,80.61
2023-03-02T23:17:01.455Z,80.81
2023-03-02T23:19:30.260Z,81.72
2023-03-02T23:21:58.066Z,81.65
2023-03-02T23:24:25.341Z,80.76
2023-03-02T23:26:53.276Z,81.49
2023-03-02T23:29:20.540Z,81.78
2023-03-02T23:31:47.798Z,81.78
2023-03-02T23:34:14.691Z,81.64
2023-03-02T23:36:41.477Z,81.33
2023-03-02T23:39:09.786Z,81.53
2023-03-02T23:41:37.208Z,80.98
2023-03-02T23:44:04.886Z,81.16
2023-03-02T23:46:31.936Z,80.88
2023-03-02T23:48:58.649Z,80.77
2023-03-02T23:51:26.243Z,81.82
2023-03-02T23:53:54.129Z,82.40
2023-03-02T23:56:21.406Z,81.12
2023-03-02T23:58:48.209Z,81.87
